createdAt,value
2024-01-26T00:02:01.385Z,26.25
2024-01-26T00:04:34.372Z,22.65
2024-01-26T00:07:07.095Z,31.40
2024-01-26T00:09:40.324Z,26.57
2024-01-26T00:12:14.204Z,24.92
2024-01-26T00:14:46.626Z,22.65
2024-01-26T00:17:19.179Z,26.77
2024-01-26T00:19:51.859Z,25.50
2024-01-26T00:22:24.504Z,22.00
2024-01-26T00:24:57.720Z,25.37
2024-01-26T00:27:30.285Z,28.90
2024-01-26T00:30:03.635Z,24.75
2024-01-26T00:32:36.199Z,25.10
2024-01-26T00:35:09.358Z,24.40
2024-01-26T00:37:42.008Z,24.27
2024-01-26T00:40:15.223Z,26.20
2024-01-26T00:42:48.533Z,20.08
2024-01-26T00:45:22.303Z,31.48
2024-01-26T00:47:55.236Z,22.13
2024-01-26T00:50:28.574Z,28.07
2024-01-26T00:53:01.132Z,27.05
2024-01-26T00:55:34.144Z,27.05
2024-01-26T00:58:07.533Z,28.80
2024-01-26T01:03:13.517Z,24.92
2024-01-26T01:05:46.889Z,27.22
2024-01-26T01:08:19.797Z,27.42
2024-01-26T01:10:52.984Z,26.85
2024-01-26T01:13:26.981Z,29.80
2024-01-26T01:16:01.329Z,26.33
2024-01-26T01:18:34.040Z,26.93
2024-01-26T01:21:07.008Z,25.75
2024-01-26T01:23:40.173Z,27.25
2024-01-26T01:26:13.017Z,31.12
2024-01-26T01:28:45.911Z,25.52
2024-01-26T01:31:18.801Z,28.62
2024-01-26T01:33:51.396Z,26.10
2024-01-26T01:36:24.099Z,30.08
2024-01-26T01:38:57.823Z,25.85
2024-01-26T01:41:30.742Z,24.90
2024-01-26T01:44:03.657Z,29.02
2024-01-26T01:46:36.993Z,26.15
2024-01-26T01:49:09.720Z,24.47
2024-01-26T01:51:45.125Z,25.68
2024-01-26T01:54:20.969Z,24.57
2024-01-26T01:56:58.213Z,28.00
2024-01-26T01:59:32.045Z,24.57
2024-01-26T02:02:05.924Z,24.98
2024-01-26T02:04:39.397Z,33.63
2024-01-26T02:07:12.091Z,29.92
2024-01-26T02:09:45.548Z,28.42
2024-01-26T02:12:18.295Z,29.20
2024-01-26T02:14:50.847Z,28.12
2024-01-26T02:17:25.612Z,25.30
2024-01-26T02:20:00.685Z,25.02
2024-01-26T02:22:34.489Z,40.03
2024-01-26T02:25:09.027Z,31.60
2024-01-26T02:27:42.042Z,30.92
2024-01-26T02:30:15.633Z,33.33
2024-01-26T02:32:48.713Z,32.35
2024-01-26T02:35:21.191Z,32.00
2024-01-26T02:37:54.144Z,27.15
2024-01-26T02:40:26.813Z,34.38
2024-01-26T02:42:59.885Z,27.98
2024-01-26T02:45:33.389Z,29.50
2024-01-26T02:48:06.400Z,35.20
2024-01-26T02:50:39.559Z,37.10
2024-01-26T02:53:12.182Z,34.58
2024-01-26T02:55:44.838Z,23.12
2024-01-26T02:58:18.655Z,26.55
2024-01-26T03:00:52.386Z,28.38
2024-01-26T03:03:25.362Z,33.28
2024-01-26T03:05:58.915Z,30.45
2024-01-26T03:08:32.936Z,29.60
2024-01-26T03:11:05.617Z,32.33
2024-01-26T03:13:38.225Z,26.87
2024-01-26T03:16:12.130Z,37.73
2024-01-26T03:18:44.736Z,24.87
2024-01-26T03:21:17.574Z,28.85
2024-01-26T03:23:50.731Z,27.82
2024-01-26T03:26:23.630Z,41.18
2024-01-26T03:28:56.384Z,45.10
2024-01-26T03:31:29.251Z,38.85
2024-01-26T03:34:02.586Z,35.48
2024-01-26T03:36:35.647Z,37.30
2024-01-26T03:39:10.762Z,32.85
2024-01-26T03:41:44.218Z,44.77
2024-01-26T03:44:17.426Z,38.98
2024-01-26T03:46:50.900Z,43.38
2024-01-26T03:49:23.792Z,48.95
2024-01-26T03:51:56.857Z,40.90
2024-01-26T03:54:30.456Z,48.08
2024-01-26T03:57:03.816Z,39.80
2024-01-26T03:59:37.665Z,35.13
2024-01-26T04:02:11.509Z,33.30
2024-01-26T04:04:46.281Z,32.85
2024-01-26T04:07:19.548Z,43.83
2024-01-26T04:09:52.168Z,45.05
2024-01-26T04:12:26.956Z,27.40
2024-01-26T04:15:00.459Z,26.65
2024-01-26T04:17:34.489Z,37.25
2024-01-26T04:20:08.554Z,37.73
2024-01-26T04:22:43.330Z,37.65
2024-01-26T04:25:17.988Z,40.60
2024-01-26T04:27:53.071Z,35.50
2024-01-26T04:30:28.039Z,49.53
2024-01-26T04:33:01.494Z,38.58
2024-01-26T04:38:08.955Z,39.48
2024-01-26T04:40:42.876Z,39.15
2024-01-26T04:43:17.408Z,38.90
2024-01-26T04:45:51.197Z,42.95
2024-01-26T04:48:26.053Z,32.50
2024-01-26T04:50:59.430Z,37.30
2024-01-26T04:53:34.729Z,61.37
2024-01-26T04:56:13.106Z,42.35
2024-01-26T04:58:48.578Z,39.53
2024-01-26T05:01:25.038Z,46.63
2024-01-26T05:03:57.817Z,48.90
2024-01-26T05:06:31.192Z,39.92
2024-01-26T05:09:05.394Z,43.68
2024-01-26T05:11:40.827Z,39.92
2024-01-26T05:14:13.662Z,39.20
2024-01-26T05:16:47.160Z,41.37
2024-01-26T05:19:21.856Z,41.28
2024-01-26T05:21:56.475Z,52.93
2024-01-26T05:24:31.816Z,34.43
2024-01-26T05:27:06.696Z,38.80
2024-01-26T05:29:40.259Z,43.42
2024-01-26T05:32:13.369Z,43.73
2024-01-26T05:37:20.972Z,52.15
2024-01-26T05:39:53.656Z,53.48
2024-01-26T05:42:26.461Z,48.85
2024-01-26T05:44:59.582Z,33.92
2024-01-26T05:47:34.928Z,49.80
2024-01-26T05:50:09.408Z,45.88
2024-01-26T05:52:43.640Z,66.22
2024-01-26T05:55:19.700Z,39.70
2024-01-26T05:57:53.980Z,46.77
2024-01-26T06:00:28.046Z,46.92
2024-01-26T06:03:01.244Z,48.10
2024-01-26T06:05:34.930Z,43.48
2024-01-26T06:08:09.063Z,48.87
2024-01-26T06:10:42.976Z,46.77
2024-01-26T06:13:17.641Z,38.55
2024-01-26T06:15:53.489Z,41.48
2024-01-26T06:18:26.576Z,41.10
2024-01-26T06:21:00.991Z,31.10
2024-01-26T06:23:36.746Z,28.40
2024-01-26T06:26:11.534Z,38.63
2024-01-26T06:28:46.579Z,36.85
2024-01-26T06:31:20.917Z,33.40
2024-01-26T06:33:54.814Z,29.12
2024-01-26T06:36:32.519Z,43.92
2024-01-26T06:39:08.688Z,36.23
2024-01-26T06:41:46.043Z,28.47
2024-01-26T06:46:52.669Z,39.85
2024-01-26T06:49:28.021Z,44.95
2024-01-26T06:52:01.103Z,38.15
2024-01-26T06:54:34.175Z,37.85
2024-01-26T06:57:10.231Z,32.93
2024-01-26T06:59:43.904Z,41.65
2024-01-26T07:02:17.319Z,50.25
2024-01-26T07:04:51.205Z,47.30
2024-01-26T07:07:24.284Z,68.25
2024-01-26T07:09:59.107Z,54.93
2024-01-26T07:12:34.099Z,52.78
2024-01-26T07:15:11.524Z,36.17
2024-01-26T07:17:45.147Z,40.55
2024-01-26T07:20:19.532Z,51.13
2024-01-26T07:22:53.394Z,42.17
2024-01-26T07:27:59.459Z,39.95
2024-01-26T07:30:32.731Z,36.05
2024-01-26T07:33:08.045Z,38.13
2024-01-26T07:35:41.197Z,48.17
2024-01-26T07:38:15.276Z,55.03
2024-01-26T07:40:49.615Z,42.75
2024-01-26T07:43:24.668Z,35.17
2024-01-26T07:45:58.919Z,46.55
2024-01-26T07:48:33.992Z,44.80
2024-01-26T07:51:08.804Z,53.65
2024-01-26T07:56:14.455Z,49.13
2024-01-26T07:58:52.062Z,47.13
2024-01-26T08:01:25.831Z,63.23
2024-01-26T08:03:59.474Z,40.75
2024-01-26T08:06:33.565Z,70.25
2024-01-26T08:11:40.653Z,71.00
2024-01-26T08:14:15.280Z,68.72
2024-01-26T08:16:49.122Z,82.17
2024-01-26T08:21:57.891Z,55.92
2024-01-26T08:24:30.757Z,58.45
2024-01-26T08:27:04.144Z,64.75
2024-01-26T08:29:39.040Z,62.98
2024-01-26T08:32:11.886Z,62.75
2024-01-26T08:34:45.180Z,84.92
2024-01-26T08:37:18.736Z,94.10
2024-01-26T08:39:52.006Z,64.97
2024-01-26T08:42:25.819Z,71.50
2024-01-26T08:44:59.380Z,51.47
2024-01-26T08:47:33.848Z,72.72
2024-01-26T08:50:07.486Z,67.30
2024-01-26T08:52:41.374Z,68.92
2024-01-26T08:55:16.360Z,71.87
2024-01-26T08:57:50.048Z,63.02
2024-01-26T09:00:24.167Z,68.28
2024-01-26T09:02:57.272Z,52.75
2024-01-26T09:05:30.375Z,82.10
2024-01-26T09:08:03.926Z,62.20
2024-01-26T09:13:09.297Z,74.77
2024-01-26T09:15:42.968Z,104.33
2024-01-26T09:18:16.746Z,80.40
2024-01-26T09:20:54.963Z,72.15
2024-01-26T09:23:27.997Z,60.35
2024-01-26T09:26:01.683Z,57.23
2024-01-26T09:28:36.720Z,69.82
2024-01-26T09:31:11.814Z,64.58
2024-01-26T09:33:45.475Z,60.45
2024-01-26T09:36:20.170Z,53.68
2024-01-26T09:41:27.159Z,67.50
2024-01-26T09:44:00.937Z,60.15
2024-01-26T09:46:35.718Z,62.70
2024-01-26T09:51:44.606Z,70.25
2024-01-26T09:54:21.701Z,60.98
2024-01-26T09:56:56.647Z,65.80
2024-01-26T09:59:29.678Z,72.62
2024-01-26T10:02:03.426Z,70.80
2024-01-26T10:04:36.436Z,74.35
2024-01-26T10:07:09.330Z,88.80
2024-01-26T10:09:44.014Z,59.45
2024-01-26T10:12:17.539Z,50.00
2024-01-26T10:14:52.523Z,55.55
2024-01-26T10:20:19.968Z,63.35
2024-01-26T10:22:55.031Z,57.35
2024-01-26T10:25:28.184Z,62.70
2024-01-26T10:28:05.044Z,56.80
2024-01-26T10:30:41.640Z,64.27
2024-01-26T10:33:16.918Z,57.08
2024-01-26T10:35:52.331Z,54.13
2024-01-26T10:38:26.689Z,63.65
2024-01-26T10:41:07.993Z,79.45
2024-01-26T10:43:44.014Z,63.80
2024-01-26T10:46:18.347Z,67.47
2024-01-26T10:48:54.858Z,65.35
2024-01-26T10:51:29.537Z,53.83
2024-01-26T10:54:12.739Z,71.70
2024-01-26T10:56:47.222Z,51.83
2024-01-26T11:01:56.836Z,65.92
2024-01-26T11:04:32.835Z,59.23
2024-01-26T11:07:08.048Z,76.17
2024-01-26T11:09:48.353Z,58.13
2024-01-26T11:12:27.297Z,56.88
2024-01-26T11:15:19.776Z,60.28
2024-01-26T11:17:59.743Z,64.37
2024-01-26T11:20:36.637Z,63.17
2024-01-26T11:23:15.162Z,65.67
2024-01-26T11:25:54.723Z,71.92
2024-01-26T11:28:31.316Z,57.88
2024-01-26T11:31:05.708Z,55.83
2024-01-26T11:36:14.138Z,47.63
2024-01-26T11:38:49.875Z,61.63
2024-01-26T11:41:25.442Z,63.83
2024-01-26T11:44:03.247Z,50.88
2024-01-26T11:46:38.963Z,56.73
2024-01-26T11:49:11.962Z,48.55
2024-01-26T11:51:46.074Z,39.25
2024-01-26T11:54:21.004Z,49.23
2024-01-26T11:59:26.470Z,48.55
2024-01-26T12:02:00.652Z,53.50
2024-01-26T12:04:34.747Z,37.85
2024-01-26T12:07:09.964Z,40.75
2024-01-26T12:09:45.876Z,44.23
2024-01-26T12:12:20.876Z,43.92
2024-01-26T12:14:53.905Z,39.15
2024-01-26T12:17:26.767Z,31.20
2024-01-26T12:19:59.684Z,45.95
2024-01-26T12:22:36.131Z,41.98
2024-01-26T12:25:11.242Z,39.83
2024-01-26T12:27:45.257Z,43.60
2024-01-26T12:33:09.350Z,34.10
2024-01-26T12:35:43.784Z,37.83
2024-01-26T12:38:20.237Z,40.67
2024-01-26T12:40:53.192Z,36.70
2024-01-26T12:43:26.642Z,33.35
2024-01-26T12:46:00.312Z,35.48
2024-01-26T12:48:34.132Z,34.65
2024-01-26T12:51:08.066Z,37.17
2024-01-26T12:53:41.044Z,36.68
2024-01-26T12:56:14.776Z,32.55
2024-01-26T12:58:47.956Z,29.67
2024-01-26T13:01:22.704Z,38.35
2024-01-26T13:03:56.831Z,25.82
2024-01-26T13:06:29.588Z,29.72
2024-01-26T13:09:02.708Z,35.60
2024-01-26T13:11:37.237Z,31.27
2024-01-26T13:14:10.334Z,30.68
2024-01-26T13:16:44.174Z,34.58
2024-01-26T13:19:19.902Z,37.45
2024-01-26T13:21:53.470Z,37.48
2024-01-26T13:24:27.390Z,37.65
2024-01-26T13:27:07.776Z,30.40
2024-01-26T13:29:36.506Z,37.25
2024-01-26T13:32:10.370Z,43.58
2024-01-26T13:34:46.028Z,34.03
2024-01-26T13:37:19.231Z,25.85
2024-01-26T13:39:52.556Z,48.15
2024-01-26T13:42:27.181Z,34.40
2024-01-26T13:45:01.215Z,33.20
2024-01-26T13:47:36.831Z,34.43
2024-01-26T13:50:11.919Z,37.15
2024-01-26T13:52:45.826Z,34.98
2024-01-26T13:55:20.216Z,29.98
2024-01-26T13:57:53.642Z,49.75
2024-01-26T14:00:28.231Z,46.55
2024-01-26T14:03:02.622Z,32.53
2024-01-26T14:05:37.343Z,35.03
2024-01-26T14:10:42.812Z,32.42
2024-01-26T14:13:15.985Z,36.80
2024-01-26T14:15:49.131Z,33.70
2024-01-26T14:18:23.731Z,36.50
2024-01-26T14:20:59.350Z,35.25
2024-01-26T14:23:33.609Z,30.12
2024-01-26T14:26:12.080Z,30.75
2024-01-26T14:28:48.228Z,26.82
2024-01-26T14:31:23.087Z,33.38
2024-01-26T14:33:57.439Z,27.70
2024-01-26T14:36:31.453Z,30.30
2024-01-26T14:39:06.874Z,25.40
2024-01-26T14:41:40.394Z,30.65
2024-01-26T14:44:13.678Z,27.20
2024-01-26T14:46:48.714Z,27.70
2024-01-26T14:49:22.562Z,33.55
2024-01-26T14:51:57.771Z,35.58
2024-01-26T14:54:31.293Z,28.10
2024-01-26T14:57:04.317Z,38.73
2024-01-26T14:59:39.278Z,30.10
2024-01-26T15:02:13.229Z,32.95
2024-01-26T15:07:20.415Z,30.88
2024-01-26T15:09:55.411Z,27.30
2024-01-26T15:12:30.035Z,29.67
2024-01-26T15:15:04.176Z,64.65
2024-01-26T15:17:39.036Z,46.90
2024-01-26T15:20:13.278Z,28.62
2024-01-26T15:22:49.561Z,32.58
2024-01-26T15:25:25.494Z,33.08
2024-01-26T15:27:58.271Z,35.45
2024-01-26T15:30:31.975Z,28.32
2024-01-26T15:33:07.114Z,30.30
2024-01-26T15:38:13.251Z,34.58
2024-01-26T15:40:48.071Z,31.48
2024-01-26T15:43:21.439Z,32.53
2024-01-26T15:45:56.509Z,34.38
2024-01-26T15:48:31.271Z,33.30
2024-01-26T15:51:06.236Z,28.38
2024-01-26T15:53:39.251Z,30.55
2024-01-26T15:56:13.786Z,29.27
2024-01-26T15:58:48.265Z,34.23
2024-01-26T16:01:22.109Z,35.68
2024-01-26T16:03:55.417Z,25.08
2024-01-26T16:06:30.250Z,28.83
2024-01-26T16:09:04.706Z,25.97
2024-01-26T16:11:37.874Z,19.87
2024-01-26T16:14:13.107Z,30.15
2024-01-26T16:16:49.714Z,25.12
2024-01-26T16:19:23.657Z,27.65
2024-01-26T16:21:57.675Z,28.05
2024-01-26T16:24:31.865Z,26.15
2024-01-26T16:27:05.480Z,28.15
2024-01-26T16:29:39.150Z,29.75
2024-01-26T16:32:12.229Z,28.25
2024-01-26T16:34:46.081Z,37.00
2024-01-26T16:37:19.525Z,30.20
2024-01-26T16:39:54.049Z,49.75
2024-01-26T16:42:27.793Z,40.88
2024-01-26T16:45:01.806Z,43.10
2024-01-26T16:47:35.849Z,31.07
2024-01-26T16:50:09.831Z,34.23
2024-01-26T16:52:43.662Z,24.90
2024-01-26T16:55:17.129Z,32.60
2024-01-26T16:57:50.397Z,30.48
2024-01-26T17:00:25.589Z,25.70
2024-01-26T17:03:01.305Z,31.07
2024-01-26T17:05:36.500Z,28.95
2024-01-26T17:08:10.710Z,36.98
2024-01-26T17:10:45.548Z,33.13
2024-01-26T17:13:21.316Z,34.50
2024-01-26T17:15:55.025Z,30.50
2024-01-26T17:18:28.419Z,25.97
2024-01-26T17:21:02.393Z,38.90
2024-01-26T17:23:37.461Z,31.23
2024-01-26T17:26:11.157Z,25.80
2024-01-26T17:28:45.117Z,18.05
2024-01-26T17:31:19.442Z,34.18
2024-01-26T17:33:55.092Z,32.28
2024-01-26T17:36:29.775Z,33.00
2024-01-26T17:39:03.040Z,39.10
2024-01-26T17:41:37.956Z,32.80
2024-01-26T17:44:11.763Z,30.05
2024-01-26T17:46:49.380Z,27.70
2024-01-26T17:49:24.273Z,27.55
2024-01-26T17:51:59.262Z,32.63
2024-01-26T17:54:33.291Z,30.50
2024-01-26T17:57:08.294Z,29.67
2024-01-26T17:59:45.485Z,29.35
2024-01-26T18:02:23.348Z,28.27
2024-01-26T18:04:57.112Z,25.62
2024-01-26T18:07:33.021Z,30.48
2024-01-26T18:10:07.817Z,27.65
2024-01-26T18:12:43.416Z,27.58
2024-01-26T18:15:21.030Z,31.68
2024-01-26T18:17:54.281Z,32.50
2024-01-26T18:20:26.988Z,28.10
2024-01-26T18:23:00.010Z,28.05
2024-01-26T18:25:33.050Z,26.82
2024-01-26T18:28:07.842Z,33.42
2024-01-26T18:30:40.987Z,32.73
2024-01-26T18:33:14.469Z,34.63
2024-01-26T18:35:47.960Z,27.75
2024-01-26T18:38:22.170Z,34.43
2024-01-26T18:43:27.076Z,29.48
2024-01-26T18:45:59.552Z,32.70
2024-01-26T18:48:33.466Z,35.68
2024-01-26T18:51:06.765Z,31.90
2024-01-26T18:53:39.561Z,26.97
2024-01-26T18:56:13.224Z,24.80
2024-01-26T18:58:46.782Z,23.22
2024-01-26T19:01:20.671Z,27.90
2024-01-26T19:03:54.386Z,25.27
2024-01-26T19:06:28.736Z,24.65
2024-01-26T19:09:02.489Z,31.23
2024-01-26T19:11:35.254Z,25.80
2024-01-26T19:14:08.015Z,23.30
2024-01-26T19:16:41.254Z,25.32
2024-01-26T19:19:16.005Z,22.55
2024-01-26T19:21:49.398Z,26.90
2024-01-26T19:24:24.083Z,28.52
2024-01-26T19:26:58.233Z,26.27
2024-01-26T19:29:32.839Z,25.57
2024-01-26T19:32:05.937Z,27.75
2024-01-26T19:34:39.988Z,24.80
2024-01-26T19:37:13.334Z,27.13
2024-01-26T19:39:47.507Z,30.80
2024-01-26T19:42:21.020Z,23.02
2024-01-26T19:44:53.872Z,24.47
2024-01-26T19:47:26.622Z,24.67
2024-01-26T19:50:00.299Z,26.35
2024-01-26T19:52:33.732Z,22.17
2024-01-26T19:55:07.710Z,22.60
2024-01-26T19:57:43.006Z,24.07
2024-01-26T20:00:18.189Z,27.45
2024-01-26T20:02:51.663Z,26.50
2024-01-26T20:05:24.236Z,21.57
2024-01-26T20:07:57.605Z,25.55
2024-01-26T20:10:30.077Z,19.48
2024-01-26T20:13:02.620Z,24.30
2024-01-26T20:15:35.592Z,21.75
2024-01-26T20:18:09.106Z,28.35
2024-01-26T20:20:42.651Z,21.62
2024-01-26T20:23:16.019Z,23.60
2024-01-26T20:25:50.128Z,20.68
2024-01-26T20:28:23.687Z,20.23
2024-01-26T20:30:56.880Z,20.12
2024-01-26T20:33:30.191Z,21.30
2024-01-26T20:36:04.788Z,19.30
2024-01-26T20:38:38.013Z,17.48
2024-01-26T20:41:11.312Z,19.27
2024-01-26T20:43:44.045Z,18.32
2024-01-26T20:46:18.241Z,20.85
2024-01-26T20:48:52.958Z,20.05
2024-01-26T20:51:26.297Z,18.23
2024-01-26T20:53:59.353Z,19.53
2024-01-26T20:59:26.304Z,20.97
2024-01-26T21:01:59.663Z,23.42
2024-01-26T21:04:32.514Z,16.15
2024-01-26T21:07:07.321Z,18.07
2024-01-26T21:09:41.332Z,15.58
2024-01-26T21:14:47.050Z,19.17
2024-01-26T21:17:19.562Z,20.70
2024-01-26T21:19:52.519Z,15.55
2024-01-26T21:22:25.286Z,13.85
2024-01-26T21:24:57.997Z,14.75
2024-01-26T21:27:30.774Z,13.95
2024-01-26T21:30:03.402Z,14.15
2024-01-26T21:32:35.973Z,16.07
2024-01-26T21:35:10.070Z,14.78
2024-01-26T21:37:45.648Z,13.30
2024-01-26T21:40:18.895Z,17.75
2024-01-26T21:42:52.376Z,14.10
2024-01-26T21:45:25.675Z,13.93
2024-01-26T21:47:58.941Z,12.20
2024-01-26T21:50:31.688Z,10.97
2024-01-26T21:53:05.219Z,8.33
2024-01-26T21:55:40.218Z,8.93
2024-01-26T21:58:14.127Z,13.98
2024-01-26T22:00:47.872Z,12.13
2024-01-26T22:03:20.921Z,9.95
2024-01-26T22:05:54.140Z,14.20
2024-01-26T22:08:27.485Z,18.07
2024-01-26T22:10:59.934Z,19.23
2024-01-26T22:13:33.858Z,20.48
2024-01-26T22:16:07.344Z,18.80
2024-01-26T22:18:40.714Z,17.27
2024-01-26T22:21:13.905Z,15.78
2024-01-26T22:23:47.804Z,20.80
2024-01-26T22:26:22.775Z,17.07
2024-01-26T22:28:59.982Z,19.60
2024-01-26T22:31:32.666Z,17.70
2024-01-26T22:34:06.433Z,16.82
2024-01-26T22:36:39.039Z,15.23
2024-01-26T22:39:12.586Z,19.80
2024-01-26T22:41:46.333Z,17.20
2024-01-26T22:44:19.035Z,16.48
2024-01-26T22:46:51.685Z,19.62
2024-01-26T22:49:24.343Z,16.62
2024-01-26T22:51:57.326Z,17.15
2024-01-26T22:54:30.323Z,16.17
2024-01-26T22:57:03.528Z,9.97
2024-01-26T22:59:38.318Z,16.20
2024-01-26T23:02:11.329Z,16.67
2024-01-26T23:04:43.904Z,16.93
2024-01-26T23:07:16.357Z,18.05
2024-01-26T23:09:49.030Z,16.60
2024-01-26T23:12:21.763Z,20.97
2024-01-26T23:14:54.550Z,17.23
2024-01-26T23:17:27.921Z,17.95
2024-01-26T23:20:00.505Z,16.55
2024-01-26T23:22:34.127Z,20.55
2024-01-26T23:25:08.975Z,19.20
2024-01-26T23:27:41.757Z,20.72
2024-01-26T23:30:15.282Z,21.70
2024-01-26T23:32:48.383Z,18.60
2024-01-26T23:35:21.654Z,18.27
2024-01-26T23:37:57.523Z,18.02
2024-01-26T23:40:30.656Z,11.63
2024-01-26T23:43:03.395Z,15.40
2024-01-26T23:45:35.994Z,17.87
2024-01-26T23:48:14.196Z,17.30
2024-01-26T23:50:46.821Z,15.55
2024-01-26T23:53:19.492Z,14.10
2024-01-26T23:55:52.978Z,18.75
2024-01-26T23:58:26.889Z,18.00
